sim
Sign-in with your pilot id or email,
or register
Callsign
Passwort

Schedule Details

Flight Number: DLH2701 (2)
Departure: Dusseldorf International Airport (EDDL) at 14:00
Arrival: Munich Airport (EDDM) at 15:10
Route: Lufthansa Passenger Schedule. Enter filed route here before submitting Pirep.

Weather Information
Getting current METAR information for EDDL 201620Z 02010KT CAVOK 24/05 Q1015 NOSIG
Getting current METAR information for EDDM 201620Z 04004KT CAVOK 21/11 Q1015 NOSIG

Schedule Frequency

Route Map